Time;durP1;ratioP1;P1;durP2;ratioP2;P2;SDS_P1;SDS_P2;PMS_P1;PMS_P2;Temp;Humidity;BMP_temperature;BMP_pressure;BME280_temperature;BME280_humidity;BME280_pressure;Samples;Min_cycle;Max_cycle;Signal;HPM_P1;HPM_P2
2021/05/12 00:01:17;;;;;;;2.22;0.40;;;16.00;96.70;;;;;;5102083;28;20394;-76
2021/05/12 00:03:46;;;;;;;2.83;0.57;;;15.90;96.70;;;;;;5102896;28;20039;-76
2021/05/12 00:06:15;;;;;;;1.85;0.55;;;15.90;96.70;;;;;;5101733;28;20496;-76
2021/05/12 00:08:43;;;;;;;3.30;0.50;;;15.90;96.70;;;;;;5084150;28;20497;-76
2021/05/12 00:11:13;;;;;;;1.88;0.60;;;15.90;96.70;;;;;;5103159;28;20043;-76
2021/05/12 00:13:44;;;;;;;3.10;0.73;;;15.90;96.70;;;;;;5105179;27;20050;-76
2021/05/12 00:16:14;;;;;;;0.60;0.20;;;15.90;96.70;;;;;;5105922;27;20146;-76
2021/05/12 00:18:45;;;;;;;4.65;0.40;;;15.90;96.70;;;;;;5101592;28;20035;-76
2021/05/12 00:21:27;;;;;;;2.17;0.40;;;15.90;96.70;;;;;;5088891;28;20549;-76
2021/05/12 00:24:00;;;;;;;1.30;0.47;;;15.90;96.70;;;;;;5100675;28;20043;-76
2021/05/12 00:26:43;;;;;;;3.50;0.60;;;15.90;96.70;;;;;;5077255;28;20511;-76
2021/05/12 00:29:16;;;;;;;2.75;0.40;;;15.90;96.70;;;;;;5103175;28;20043;-76
2021/05/12 00:31:46;;;;;;;4.75;0.60;;;15.90;96.70;;;;;;5098244;28;20070;-76
2021/05/12 00:34:16;;;;;;;2.83;0.43;;;15.80;96.70;;;;;;5100326;28;20050;-76
2021/05/12 00:36:46;;;;;;;2.90;0.73;;;15.80;96.70;;;;;;5102188;28;20404;-76
2021/05/12 00:39:17;;;;;;;1.92;0.40;;;15.80;96.70;;;;;;5103517;28;20319;-75
2021/05/12 00:41:48;;;;;;;3.47;0.60;;;15.80;96.70;;;;;;5101456;28;20052;-76
2021/05/12 00:44:21;;;;;;;3.03;0.43;;;15.80;96.70;;;;;;5102758;27;20051;-76
2021/05/12 00:46:52;;;;;;;4.22;0.35;;;15.50;96.70;;;;;;5102367;28;20130;-76
2021/05/12 00:49:23;;;;;;;1.27;0.40;;;15.50;96.70;;;;;;5102928;28;20100;-76
2021/05/12 00:51:51;;;;;;;0.57;0.30;;;15.50;96.70;;;;;;5100088;27;21861;-76
2021/05/12 00:54:20;;;;;;;1.55;0.50;;;15.40;96.70;;;;;;5104684;28;20059;-75
2021/05/12 00:56:50;;;;;;;1.63;0.40;;;15.40;96.70;;;;;;5092335;28;20488;-76
2021/05/12 00:59:31;;;;;;;1.23;0.40;;;15.40;96.70;;;;;;5102673;28;20444;-75
2021/05/12 01:02:00;;;;;;;2.47;0.60;;;15.40;96.70;;;;;;5102545;28;20043;-76
2021/05/12 01:04:44;;;;;;;1.25;0.50;;;15.40;96.70;;;;;;5104239;28;20035;-75
2021/05/12 01:07:12;;;;;;;0.63;0.28;;;15.40;96.70;;;;;;5095165;28;20040;-76
2021/05/12 01:09:41;;;;;;;2.67;0.60;;;15.30;96.70;;;;;;5083983;27;20139;-76
2021/05/12 01:12:10;;;;;;;1.75;0.38;;;15.40;96.70;;;;;;5096379;28;20316;-76
2021/05/12 01:14:40;;;;;;;3.30;0.63;;;15.30;96.70;;;;;;5104707;27;20055;-75
2021/05/12 01:17:27;;;;;;;2.38;0.65;;;15.20;96.70;;;;;;5100694;28;20519;-76
2021/05/12 01:19:55;;;;;;;3.13;0.57;;;15.10;96.70;;;;;;5090734;27;20043;-75
2021/05/12 01:22:24;;;;;;;2.30;0.65;;;15.10;96.70;;;;;;5102853;28;20521;-76
2021/05/12 01:24:53;;;;;;;4.18;0.93;;;15.20;96.70;;;;;;5102763;28;20035;-76
2021/05/12 01:27:22;;;;;;;1.75;0.35;;;15.30;96.70;;;;;;5100032;28;20048;-76
2021/05/12 01:33:21;;;;;;;1.90;0.30;;;15.40;96.70;;;;;;5100699;28;20413;-76
2021/05/12 01:35:50;;;;;;;2.90;0.55;;;15.50;96.70;;;;;;5100505;28;20355;-76
2021/05/12 01:38:20;;;;;;;2.05;0.47;;;15.50;96.70;;;;;;5102826;28;20035;-75
2021/05/12 01:44:25;;;;;;;1.45;0.40;;;15.70;96.70;;;;;;5101072;28;20047;-76
2021/05/12 01:46:53;;;;;;;2.00;0.55;;;15.80;96.70;;;;;;5097229;28;20063;-76
2021/05/12 01:49:25;;;;;;;1.77;0.55;;;15.70;96.70;;;;;;5095975;28;20143;-76
2021/05/12 01:51:54;;;;;;;2.17;0.50;;;15.60;96.70;;;;;;5103570;28;20043;-76
2021/05/12 01:54:24;;;;;;;4.38;0.52;;;15.60;96.70;;;;;;5093681;28;20079;-76
2021/05/12 01:56:52;;;;;;;1.55;0.57;;;15.60;96.70;;;;;;5097373;28;20035;-76
2021/05/12 01:59:23;;;;;;;0.82;0.40;;;15.50;96.70;;;;;;5098943;28;20400;-75
2021/05/12 02:01:52;;;;;;;5.05;0.85;;;15.50;96.70;;;;;;5099538;28;20047;-76
2021/05/12 02:04:20;;;;;;;2.92;0.70;;;15.50;96.70;;;;;;5100788;27;20091;-76
2021/05/12 02:06:48;;;;;;;2.05;0.40;;;15.50;96.70;;;;;;5101640;28;20043;-76
2021/05/12 02:09:18;;;;;;;3.83;0.52;;;15.50;96.70;;;;;;5099832;28;20066;-76
2021/05/12 02:11:47;;;;;;;1.25;0.38;;;15.50;96.70;;;;;;5100997;28;20045;-76
2021/05/12 02:14:16;;;;;;;3.33;0.50;;;15.50;96.70;;;;;;5102393;27;20048;-76
2021/05/12 02:16:45;;;;;;;4.13;0.85;;;15.40;96.70;;;;;;5100177;28;20032;-76
2021/05/12 02:19:14;;;;;;;3.95;0.73;;;15.30;96.70;;;;;;5093316;28;20069;-75
2021/05/12 02:21:42;;;;;;;5.80;0.90;;;15.30;96.70;;;;;;5101517;28;20033;-75
2021/05/12 02:24:11;;;;;;;3.03;0.68;;;15.30;96.70;;;;;;5096178;28;20040;-76
2021/05/12 02:26:41;;;;;;;3.90;0.95;;;15.30;96.70;;;;;;5100319;28;20501;-76
2021/05/12 02:29:11;;;;;;;2.55;0.60;;;15.30;96.70;;;;;;5099476;28;20040;-76
2021/05/12 02:31:40;;;;;;;2.72;0.47;;;15.20;96.70;;;;;;5100185;28;20854;-75
2021/05/12 02:34:09;;;;;;;2.60;0.40;;;15.20;96.70;;;;;;5103086;27;20092;-75
2021/05/12 02:36:37;;;;;;;2.10;0.65;;;15.20;96.70;;;;;;5097823;28;20036;-75
2021/05/12 02:39:08;;;;;;;4.40;0.80;;;15.20;96.70;;;;;;5100205;28;20035;-76
2021/05/12 02:42:17;;;;;;;3.58;0.70;;;15.20;96.70;;;;;;5097193;28;20404;-76
2021/05/12 02:44:46;;;;;;;2.10;0.57;;;15.20;96.70;;;;;;5092212;28;20512;-76
2021/05/12 02:47:15;;;;;;;5.30;0.75;;;15.10;96.70;;;;;;5074174;28;20126;-76
2021/05/12 02:49:44;;;;;;;2.75;0.75;;;15.10;96.70;;;;;;5102437;28;20047;-76
2021/05/12 02:52:12;;;;;;;3.03;0.57;;;15.10;96.70;;;;;;5095315;28;20037;-75
2021/05/12 02:54:40;;;;;;;3.53;0.60;;;15.00;96.70;;;;;;5101808;28;20043;-76
2021/05/12 02:57:09;;;;;;;6.82;1.00;;;15.10;96.70;;;;;;5095932;28;20067;-76
2021/05/12 02:59:38;;;;;;;4.53;0.80;;;15.10;96.70;;;;;;5102415;28;20566;-76
2021/05/12 03:02:07;;;;;;;7.57;0.80;;;15.10;96.70;;;;;;5095320;28;20039;-76
2021/05/12 03:04:37;;;;;;;3.42;0.93;;;15.10;96.70;;;;;;5100535;28;20039;-76
2021/05/12 03:07:06;;;;;;;3.78;0.80;;;15.10;96.70;;;;;;5095190;28;20505;-75
2021/05/12 03:09:34;;;;;;;5.65;1.10;;;15.00;96.70;;;;;;5099508;28;20040;-76
2021/05/12 03:12:04;;;;;;;8.93;1.40;;;15.00;96.70;;;;;;5092075;28;20127;-76
2021/05/12 03:14:34;;;;;;;5.68;1.40;;;15.00;96.70;;;;;;5101516;28;20047;-75
2021/05/12 03:17:05;;;;;;;5.68;1.10;;;15.00;96.70;;;;;;5084282;28;20111;-75
2021/05/12 03:19:36;;;;;;;4.70;1.13;;;15.00;96.70;;;;;;5101413;28;20137;-75
2021/05/12 03:22:05;;;;;;;4.78;0.95;;;15.00;96.70;;;;;;5097053;28;20516;-76
2021/05/12 03:24:34;;;;;;;6.35;0.88;;;15.00;96.70;;;;;;5094804;28;20117;-76
2021/05/12 03:27:04;;;;;;;11.50;1.60;;;15.00;96.70;;;;;;5099454;28;20044;-76
2021/05/12 03:29:34;;;;;;;5.97;1.50;;;15.10;96.70;;;;;;5099595;28;20047;-76
2021/05/12 03:32:04;;;;;;;7.60;1.50;;;15.10;96.70;;;;;;5101770;28;20692;-76
2021/05/12 03:34:35;;;;;;;10.13;1.70;;;15.10;96.70;;;;;;5091224;28;20044;-76
2021/05/12 03:37:06;;;;;;;7.28;1.33;;;15.10;96.70;;;;;;5101878;28;20040;-75
2021/05/12 03:39:35;;;;;;;11.63;2.00;;;15.20;96.70;;;;;;5101567;28;20044;-75
2021/05/12 03:42:05;;;;;;;8.20;1.13;;;15.20;96.70;;;;;;5102130;28;20043;-75
2021/05/12 03:44:33;;;;;;;9.25;1.73;;;15.20;96.70;;;;;;5102923;28;20453;-76
2021/05/12 03:47:02;;;;;;;6.15;1.83;;;15.30;96.70;;;;;;5106418;28;20062;-76
2021/05/12 03:49:37;;;;;;;8.63;1.33;;;15.30;96.70;;;;;;5102658;28;20059;-76
2021/05/12 03:52:15;;;;;;;9.43;1.48;;;15.30;96.70;;;;;;5100306;28;20525;-76
2021/05/12 03:54:44;;;;;;;7.53;1.25;;;15.30;96.70;;;;;;5074273;28;20046;-76
2021/05/12 03:57:31;;;;;;;11.68;1.30;;;15.30;96.70;;;;;;5084314;28;20048;-76
2021/05/12 03:59:59;;;;;;;6.32;1.63;;;15.30;96.70;;;;;;5082055;28;20806;-75
2021/05/12 04:02:27;;;;;;;8.80;1.67;;;15.30;96.70;;;;;;5075072;28;20051;-75
2021/05/12 04:04:56;;;;;;;7.63;2.00;;;15.30;96.70;;;;;;5083809;28;20509;-76
2021/05/12 04:07:24;;;;;;;7.80;1.75;;;15.40;96.70;;;;;;5085723;28;20643;-76
2021/05/12 04:09:52;;;;;;;7.82;1.80;;;15.40;96.70;;;;;;5078113;28;20036;-76
2021/05/12 04:12:20;;;;;;;12.18;2.10;;;15.40;96.70;;;;;;5083419;28;20090;-76
2021/05/12 04:14:48;;;;;;;14.07;2.03;;;15.40;96.70;;;;;;5080628;28;20040;-75
2021/05/12 04:17:17;;;;;;;13.68;1.67;;;15.40;96.70;;;;;;5083059;28;20489;-76
2021/05/12 04:19:47;;;;;;;8.88;1.40;;;15.30;96.70;;;;;;5082363;28;20040;-76
2021/05/12 04:22:18;;;;;;;14.32;2.33;;;15.30;96.70;;;;;;5055971;28;20642;-75
2021/05/12 04:24:47;;;;;;;18.33;1.98;;;15.30;96.70;;;;;;5083787;28;20051;-76
2021/05/12 04:27:17;;;;;;;13.15;2.30;;;15.30;96.70;;;;;;5080387;28;20142;-75
2021/05/12 04:29:46;;;;;;;11.93;2.03;;;15.30;96.70;;;;;;5083407;28;20048;-75
2021/05/12 04:32:14;;;;;;;11.45;1.83;;;15.30;96.70;;;;;;5079357;28;20048;-76
2021/05/12 04:34:43;;;;;;;12.68;1.73;;;15.30;96.70;;;;;;5084259;28;20439;-75
2021/05/12 04:37:11;;;;;;;17.48;3.78;;;15.20;96.70;;;;;;5082195;28;20037;-76
2021/05/12 04:39:41;;;;;;;11.43;2.05;;;15.20;96.70;;;;;;5083595;28;20036;-75
2021/05/12 04:42:10;;;;;;;13.48;2.35;;;15.30;96.70;;;;;;5079032;28;20120;-75
2021/05/12 04:44:39;;;;;;;14.05;2.90;;;15.30;96.70;;;;;;5079501;28;20040;-75
2021/05/12 04:47:07;;;;;;;11.18;1.45;;;15.30;96.70;;;;;;5078605;28;20051;-75
2021/05/12 04:49:36;;;;;;;8.52;1.70;;;15.30;96.70;;;;;;5081385;28;20047;-76
2021/05/12 04:52:05;;;;;;;11.85;2.35;;;15.30;96.70;;;;;;5078312;28;20572;-75
2021/05/12 04:54:33;;;;;;;11.90;1.92;;;15.30;96.70;;;;;;5098760;28;20214;-75
2021/05/12 04:57:02;;;;;;;9.10;1.60;;;15.30;96.70;;;;;;5101607;28;20417;-76
2021/05/12 04:59:31;;;;;;;11.82;2.60;;;15.30;96.70;;;;;;5104876;28;20117;-75
2021/05/12 05:02:00;;;;;;;12.93;1.92;;;15.30;96.70;;;;;;5102195;28;20505;-76
2021/05/12 05:04:29;;;;;;;12.82;1.92;;;15.40;96.70;;;;;;5078888;28;20091;-76
2021/05/12 05:06:57;;;;;;;5.35;1.38;;;15.30;96.70;;;;;;5084377;28;20137;-75
2021/05/12 05:09:26;;;;;;;9.68;1.65;;;15.40;96.70;;;;;;5100564;28;20040;-76
2021/05/12 05:11:55;;;;;;;12.85;2.47;;;15.30;96.70;;;;;;5079263;28;20926;-76
2021/05/12 05:14:25;;;;;;;10.38;1.98;;;15.40;96.70;;;;;;5105929;27;20045;-76
2021/05/12 05:16:54;;;;;;;10.77;1.55;;;15.40;96.70;;;;;;5112287;27;20044;-76
2021/05/12 05:19:23;;;;;;;10.63;2.20;;;15.40;96.70;;;;;;5097311;28;20509;-76
2021/05/12 05:21:51;;;;;;;12.85;2.28;;;15.40;96.70;;;;;;5104890;27;20678;-75
2021/05/12 05:24:21;;;;;;;11.95;1.98;;;15.40;96.70;;;;;;5102297;28;20043;-75
2021/05/12 05:26:50;;;;;;;8.70;1.63;;;15.40;96.70;;;;;;5097407;28;20039;-76
2021/05/12 05:29:18;;;;;;;9.00;1.92;;;15.40;96.70;;;;;;5093353;28;20134;-76
2021/05/12 05:31:48;;;;;;;8.90;1.33;;;15.40;96.70;;;;;;5100983;28;20050;-75
2021/05/12 05:34:35;;;;;;;10.82;2.20;;;15.40;96.70;;;;;;5100270;28;20047;-75
2021/05/12 05:37:23;;;;;;;14.88;1.65;;;15.50;96.70;;;;;;5102017;28;20055;-75
2021/05/12 05:40:12;;;;;;;9.30;1.55;;;15.50;96.70;;;;;;5100262;28;20412;-75
2021/05/12 05:43:02;;;;;;;9.18;1.70;;;15.50;96.70;;;;;;5102161;28;20047;-76
2021/05/12 05:45:49;;;;;;;16.40;1.80;;;15.50;96.70;;;;;;5099591;28;20063;-76
2021/05/12 05:48:37;;;;;;;9.93;2.00;;;15.50;96.70;;;;;;5100873;28;20054;-76
2021/05/12 05:51:25;;;;;;;9.38;1.60;;;15.60;96.70;;;;;;5093600;28;20059;-75
2021/05/12 05:54:13;;;;;;;12.52;1.55;;;15.60;96.70;;;;;;5098719;27;20050;-75
2021/05/12 05:57:06;;;;;;;11.23;1.88;;;15.70;96.70;;;;;;5102418;28;20050;-76
2021/05/12 05:59:52;;;;;;;9.82;1.73;;;15.70;96.70;;;;;;5094056;27;20075;-77
2021/05/12 06:02:39;;;;;;;11.10;1.75;;;15.80;96.70;;;;;;5096228;28;20327;-76
2021/05/12 06:05:28;;;;;;;11.25;1.58;;;15.80;96.70;;;;;;5094811;28;20189;-75
2021/05/12 06:08:15;;;;;;;12.82;2.53;;;15.80;96.70;;;;;;5098665;28;20051;-75
2021/05/12 06:11:10;;;;;;;7.90;2.10;;;15.80;96.70;;;;;;5077254;28;20051;-77
2021/05/12 06:13:57;;;;;;;11.38;2.15;;;15.80;96.70;;;;;;5097334;28;20045;-75
2021/05/12 06:16:44;;;;;;;9.63;2.00;;;15.80;96.70;;;;;;5100559;28;20235;-75
2021/05/12 06:19:31;;;;;;;7.53;1.50;;;15.80;96.70;;;;;;5099496;28;20050;-75
2021/05/12 06:22:19;;;;;;;10.85;1.80;;;15.80;96.70;;;;;;5100306;28;20108;-75
2021/05/12 06:25:09;;;;;;;13.43;2.35;;;15.80;96.70;;;;;;5095503;28;20497;-75
2021/05/12 06:27:56;;;;;;;7.30;1.50;;;15.80;96.70;;;;;;5099376;28;20124;-75
2021/05/12 06:30:49;;;;;;;13.93;2.00;;;15.90;96.70;;;;;;5098726;28;20050;-75
2021/05/12 06:33:38;;;;;;;11.27;1.88;;;16.00;96.70;;;;;;5097687;27;20137;-75
2021/05/12 06:36:33;;;;;;;8.17;1.63;;;16.00;96.70;;;;;;5075710;28;20059;-75
2021/05/12 06:39:25;;;;;;;11.82;1.80;;;16.10;96.70;;;;;;5096139;28;20154;-75
2021/05/12 06:41:55;;;;;;;11.60;1.90;;;16.10;96.70;;;;;;5099518;28;20027;-75
2021/05/12 06:44:24;;;;;;;13.07;2.28;;;16.20;96.70;;;;;;5097372;28;20546;-75
2021/05/12 06:46:52;;;;;;;11.57;2.42;;;16.20;96.70;;;;;;5080451;28;20040;-75
2021/05/12 06:49:21;;;;;;;15.23;2.35;;;16.30;96.70;;;;;;5098944;28;20048;-75
2021/05/12 06:51:55;;;;;;;11.65;2.08;;;16.40;96.70;;;;;;5089369;28;20043;-75
2021/05/12 06:54:25;;;;;;;11.77;1.73;;;16.40;96.70;;;;;;5096049;28;20136;-75
2021/05/12 06:56:53;;;;;;;17.00;2.55;;;16.50;96.70;;;;;;5099954;28;20544;-75
2021/05/12 06:59:22;;;;;;;9.30;1.88;;;16.50;96.70;;;;;;5093278;28;20050;-75
2021/05/12 07:01:52;;;;;;;14.38;2.40;;;16.50;96.70;;;;;;5096415;28;20450;-75
2021/05/12 07:04:22;;;;;;;10.32;1.75;;;16.50;96.70;;;;;;5099372;28;20118;-74
2021/05/12 07:06:50;;;;;;;9.18;2.05;;;16.60;96.70;;;;;;5097259;28;20031;-75
2021/05/12 07:09:18;;;;;;;11.70;1.70;;;16.60;96.70;;;;;;5099740;28;20109;-75
2021/05/12 07:11:48;;;;;;;15.65;2.97;;;16.60;96.70;;;;;;5096899;28;20040;-76
2021/05/12 07:14:17;;;;;;;12.02;1.95;;;16.60;96.70;;;;;;5106368;27;20073;-75
2021/05/12 07:16:45;;;;;;;8.82;2.05;;;16.60;96.70;;;;;;5105512;27;20346;-76
2021/05/12 07:19:14;;;;;;;14.13;2.33;;;16.60;96.70;;;;;;5098186;28;20055;-75
2021/05/12 07:21:43;;;;;;;11.93;2.55;;;16.60;96.70;;;;;;5091980;28;20048;-75
2021/05/12 07:24:12;;;;;;;12.38;2.85;;;16.60;96.70;;;;;;5082932;28;20048;-76
2021/05/12 07:26:41;;;;;;;14.32;2.03;;;16.70;96.70;;;;;;5097393;28;20066;-75
2021/05/12 07:29:10;;;;;;;12.02;1.85;;;16.70;96.70;;;;;;5098903;28;20078;-75
2021/05/12 07:31:39;;;;;;;13.23;2.47;;;16.80;96.70;;;;;;5099494;28;20453;-75
2021/05/12 07:34:10;;;;;;;7.78;1.73;;;16.70;96.70;;;;;;5101855;28;20040;-76
2021/05/12 07:36:39;;;;;;;11.80;1.90;;;16.70;96.70;;;;;;5099177;28;20405;-75
2021/05/12 07:39:08;;;;;;;12.45;2.92;;;16.70;96.70;;;;;;5099258;28;20067;-75
2021/05/12 07:41:37;;;;;;;9.38;1.85;;;16.70;96.70;;;;;;5082091;28;20523;-75
2021/05/12 07:44:06;;;;;;;12.38;2.42;;;16.60;96.70;;;;;;5096173;28;20039;-75
2021/05/12 07:46:35;;;;;;;14.05;2.03;;;16.70;96.70;;;;;;5092008;28;20078;-75
2021/05/12 07:49:04;;;;;;;13.38;2.10;;;16.80;96.70;;;;;;5098020;28;20054;-76
2021/05/12 07:51:32;;;;;;;12.25;2.30;;;16.80;96.70;;;;;;5100191;28;20413;-75
2021/05/12 07:54:01;;;;;;;16.95;3.50;;;16.80;96.70;;;;;;5100254;28;20048;-75
2021/05/12 07:56:29;;;;;;;11.88;1.85;;;16.90;96.70;;;;;;5097994;28;20043;-75
2021/05/12 07:58:57;;;;;;;12.30;2.08;;;17.00;96.70;;;;;;5099383;28;20576;-75
2021/05/12 08:01:30;;;;;;;11.57;2.58;;;16.90;96.70;;;;;;5098738;28;20488;-75
2021/05/12 08:04:00;;;;;;;11.38;1.67;;;17.00;96.70;;;;;;5098990;28;20469;-75
2021/05/12 08:06:28;;;;;;;12.00;2.55;;;17.00;96.70;;;;;;5100531;28;20126;-75
2021/05/12 08:08:57;;;;;;;11.55;2.72;;;17.10;96.70;;;;;;5099793;28;20109;-75
2021/05/12 08:11:27;;;;;;;9.25;1.52;;;17.10;96.70;;;;;;5101626;28;20063;-76
2021/05/12 08:13:56;;;;;;;12.13;2.42;;;17.00;96.70;;;;;;5101626;28;20039;-75
2021/05/12 08:16:25;;;;;;;9.40;2.20;;;17.10;96.70;;;;;;5099783;28;20039;-75
2021/05/12 08:18:53;;;;;;;7.60;1.75;;;17.10;96.70;;;;;;5099460;28;20051;-75
2021/05/12 08:21:23;;;;;;;8.80;1.60;;;17.10;96.70;;;;;;5101964;28;20036;-75
2021/05/12 08:23:53;;;;;;;10.43;2.33;;;17.10;96.70;;;;;;5099024;28;20093;-75
2021/05/12 08:26:22;;;;;;;11.77;2.20;;;17.10;96.70;;;;;;5103872;28;20035;-75
2021/05/12 08:28:50;;;;;;;16.80;4.05;;;17.10;96.70;;;;;;5084527;28;20039;-75
2021/05/12 08:31:19;;;;;;;10.27;2.50;;;17.30;96.70;;;;;;5105927;28;20067;-74
2021/05/12 08:33:47;;;;;;;7.40;1.40;;;17.40;96.70;;;;;;5083191;28;20051;-75
2021/05/12 08:36:15;;;;;;;9.55;1.60;;;17.40;96.70;;;;;;5105232;28;20092;-75
2021/05/12 08:38:48;;;;;;;8.90;1.52;;;17.40;96.70;;;;;;5103307;28;20047;-75
2021/05/12 08:41:17;;;;;;;9.57;1.45;;;17.40;96.70;;;;;;5103827;28;20104;-75
2021/05/12 08:43:46;;;;;;;12.43;1.52;;;17.60;96.70;;;;;;5085001;28;20048;-74
2021/05/12 08:46:18;;;;;;;12.07;2.03;;;17.70;96.70;;;;;;5103662;28;20036;-75
2021/05/12 08:48:47;;;;;;;9.68;1.75;;;17.80;96.70;;;;;;5101151;28;20599;-75
2021/05/12 08:51:15;;;;;;;8.60;1.70;;;17.90;96.70;;;;;;5102661;28;20047;-75
2021/05/12 08:53:46;;;;;;;6.07;1.30;;;17.80;96.70;;;;;;5100581;28;20055;-75
2021/05/12 08:56:15;;;;;;;8.23;1.48;;;17.80;96.70;;;;;;5102729;28;20052;-75
2021/05/12 08:58:43;;;;;;;8.35;1.45;;;17.80;96.70;;;;;;5085769;28;20142;-75
2021/05/12 09:01:11;;;;;;;8.85;1.17;;;17.90;96.70;;;;;;5102454;27;20039;-74
2021/05/12 09:03:41;;;;;;;9.07;1.83;;;17.70;96.70;;;;;;5102364;27;20123;-74
2021/05/12 09:06:10;;;;;;;8.63;1.48;;;17.60;96.70;;;;;;5099460;27;20322;-74
2021/05/12 09:08:41;;;;;;;12.68;1.80;;;17.70;96.70;;;;;;5098306;28;20572;-75
2021/05/12 09:11:10;;;;;;;10.38;1.85;;;17.80;96.70;;;;;;5099635;28;20044;-75
2021/05/12 09:13:40;;;;;;;8.75;1.90;;;17.90;96.70;;;;;;5101316;27;20050;-74
2021/05/12 09:16:22;;;;;;;8.18;1.48;;;17.90;96.70;;;;;;5087201;28;20036;-75
2021/05/12 09:19:01;;;;;;;8.98;1.75;;;17.80;96.70;;;;;;5102185;28;20035;-75
2021/05/12 09:21:46;;;;;;;7.97;1.35;;;17.70;96.70;;;;;;5085544;28;20515;-75
2021/05/12 09:24:24;;;;;;;7.43;1.77;;;17.90;96.70;;;;;;5102516;28;20114;-75
2021/05/12 09:26:55;;;;;;;8.35;1.23;;;17.90;96.70;;;;;;5100351;28;20044;-75
2021/05/12 09:29:26;;;;;;;8.57;1.60;;;17.90;96.70;;;;;;5099019;28;20071;-75
2021/05/12 09:32:08;;;;;;;10.27;1.73;;;17.90;96.70;;;;;;5094561;28;20051;-75
2021/05/12 09:34:56;;;;;;;9.60;1.48;;;18.20;96.70;;;;;;5101707;28;20526;-75
2021/05/12 09:37:26;;;;;;;10.80;1.70;;;18.40;96.70;;;;;;5103171;28;20043;-75
2021/05/12 09:39:55;;;;;;;8.63;1.10;;;18.30;96.70;;;;;;5100001;28;20043;-75
2021/05/12 09:42:25;;;;;;;8.98;1.40;;;18.30;96.70;;;;;;5103050;28;20505;-75
2021/05/12 09:45:13;;;;;;;5.28;0.82;;;18.40;96.70;;;;;;5084635;28;20465;-75
2021/05/12 09:47:44;;;;;;;8.95;1.35;;;18.60;96.70;;;;;;5100077;28;20512;-75
2021/05/12 09:50:19;;;;;;;8.82;1.52;;;18.70;96.70;;;;;;5080839;28;20048;-75
2021/05/12 09:52:51;;;;;;;8.53;1.67;;;18.60;96.70;;;;;;5102105;28;20917;-76
2021/05/12 09:55:20;;;;;;;8.73;1.48;;;18.60;96.70;;;;;;5100291;28;20655;-75
2021/05/12 09:57:59;;;;;;;7.63;1.10;;;18.60;96.70;;;;;;5093670;28;20389;-75
2021/05/12 10:00:29;;;;;;;8.07;1.20;;;18.60;96.70;;;;;;5102154;27;20063;-75
2021/05/12 10:02:58;;;;;;;8.50;1.20;;;18.80;96.70;;;;;;5102086;28;20309;-75
2021/05/12 10:05:27;;;;;;;7.97;1.70;;;18.60;96.70;;;;;;5098491;28;20115;-75
2021/05/12 10:07:59;;;;;;;7.03;1.25;;;18.60;96.70;;;;;;5100862;28;20040;-75
2021/05/12 10:10:38;;;;;;;6.47;1.00;;;18.50;96.70;;;;;;5101175;28;20051;-75
2021/05/12 10:13:08;;;;;;;9.52;1.05;;;18.30;96.70;;;;;;5100630;28;20172;-75
2021/05/12 10:15:36;;;;;;;6.95;1.38;;;18.60;96.70;;;;;;5101749;27;20408;-75
2021/05/12 10:18:08;;;;;;;10.13;1.10;;;18.80;96.70;;;;;;5098537;28;20043;-75
2021/05/12 10:20:38;;;;;;;4.38;1.08;;;18.90;96.70;;;;;;5093208;28;20138;-75
2021/05/12 10:23:07;;;;;;;6.68;1.23;;;18.90;96.70;;;;;;5095970;28;20417;-75
2021/05/12 10:25:37;;;;;;;6.47;1.77;;;19.10;96.70;;;;;;5100692;28;20093;-75
2021/05/12 10:28:08;;;;;;;7.18;1.25;;;19.30;96.70;;;;;;5098757;28;20106;-74
2021/05/12 10:30:36;;;;;;;7.20;1.10;;;19.20;96.70;;;;;;5101357;28;20135;-75
2021/05/12 10:33:08;;;;;;;7.82;1.00;;;19.00;96.70;;;;;;5099474;27;20040;-74
2021/05/12 10:35:38;;;;;;;6.20;1.10;;;19.10;96.70;;;;;;5092070;28;20067;-75
2021/05/12 10:38:08;;;;;;;10.85;1.83;;;19.10;96.70;;;;;;5082970;28;20058;-75
2021/05/12 10:40:39;;;;;;;6.05;1.25;;;19.00;96.70;;;;;;5101387;28;20122;-75
2021/05/12 10:46:16;;;;;;;6.10;0.80;;;19.30;96.70;;;;;;5099878;28;20043;-75
2021/05/12 10:48:46;;;;;;;7.60;0.88;;;19.50;96.70;;;;;;5099739;28;20051;-75
2021/05/12 10:51:34;;;;;;;5.90;1.27;;;19.50;96.70;;;;;;5101047;28;20050;-75
2021/05/12 10:54:03;;;;;;;;;;;19.10;96.70;;;;;;5098202;28;20131;-75
2021/05/12 10:56:37;;;;;;;6.97;0.93;;;18.90;96.70;;;;;;5084073;28;19924;-75
2021/05/12 10:59:07;;;;;;;4.72;0.95;;;19.30;96.70;;;;;;5098407;28;20067;-75
2021/05/12 11:01:53;;;;;;;7.55;0.93;;;19.10;96.70;;;;;;5098997;28;20066;-75
2021/05/12 11:04:25;;;;;;;6.13;0.80;;;18.90;96.70;;;;;;5098731;28;20044;-75
2021/05/12 11:07:01;;;;;;;7.03;1.42;;;19.20;96.70;;;;;;5097649;28;20511;-75
2021/05/12 11:09:44;;;;;;;8.95;1.23;;;19.30;96.70;;;;;;5100486;28;20044;-75
2021/05/12 11:12:33;;;;;;;7.55;1.08;;;19.30;96.70;;;;;;5095183;28;20039;-75
2021/05/12 11:15:06;;;;;;;7.38;0.85;;;19.80;96.70;;;;;;5101153;28;20043;-76
2021/05/12 11:17:52;;;;;;;5.25;0.98;;;19.90;96.70;;;;;;5099528;28;20063;-74
2021/05/12 11:20:24;;;;;;;6.10;0.93;;;19.40;96.70;;;;;;5097938;28;20499;-74
2021/05/12 11:22:57;;;;;;;6.18;1.45;;;19.10;96.70;;;;;;5103388;28;20654;-74
2021/05/12 11:25:42;;;;;;;9.25;1.17;;;19.00;96.70;;;;;;5097280;28;20087;-75
2021/05/12 11:31:28;;;;;;;5.68;1.25;;;19.50;96.70;;;;;;5067055;28;20055;-75
2021/05/12 11:33:58;;;;;;;6.13;1.48;;;19.50;96.70;;;;;;5101231;28;20084;-75
2021/05/12 11:36:34;;;;;;;6.20;1.02;;;19.70;96.70;;;;;;5092479;28;20036;-75
2021/05/12 11:39:04;;;;;;;11.05;1.83;;;19.60;96.70;;;;;;5082558;28;20116;-75
2021/05/12 11:41:33;;;;;;;7.03;1.63;;;19.40;96.70;;;;;;5100018;28;20067;-75
2021/05/12 11:44:02;;;;;;;9.52;1.58;;;19.50;96.70;;;;;;5102380;28;20405;-76
2021/05/12 11:46:33;;;;;;;9.52;1.15;;;19.80;96.70;;;;;;5099202;28;20036;-75
2021/05/12 11:49:04;;;;;;;6.15;1.20;;;19.60;96.70;;;;;;5096269;28;20044;-75
2021/05/12 11:51:36;;;;;;;7.88;1.30;;;19.50;96.70;;;;;;5098602;28;20300;-75
2021/05/12 11:54:06;;;;;;;7.68;1.13;;;19.40;96.70;;;;;;5099779;28;20043;-75
2021/05/12 11:56:40;;;;;;;8.18;1.33;;;19.60;96.70;;;;;;5103580;28;20039;-75
2021/05/12 11:59:13;;;;;;;7.10;1.98;;;19.50;96.70;;;;;;5099959;28;20036;-75
2021/05/12 12:01:48;;;;;;;8.68;1.40;;;19.10;96.70;;;;;;5095775;28;20045;-75
2021/05/12 12:04:29;;;;;;;8.50;1.63;;;19.50;96.70;;;;;;5102037;28;20048;-76
2021/05/12 12:06:57;;;;;;;11.35;2.05;;;19.50;96.70;;;;;;5104061;28;20051;-75
2021/05/12 12:09:27;;;;;;;11.55;2.22;;;19.70;96.70;;;;;;5100690;28;20487;-75
2021/05/12 12:11:58;;;;;;;10.07;1.65;;;19.50;96.70;;;;;;5104806;28;20051;-76
2021/05/12 12:14:31;;;;;;;14.13;2.20;;;19.60;96.70;;;;;;5099520;27;20075;-76
2021/05/12 12:17:01;;;;;;;10.70;2.53;;;19.50;96.70;;;;;;5104216;28;20057;-76
2021/05/12 12:19:30;;;;;;;10.77;1.92;;;19.40;96.70;;;;;;5099676;27;20044;-76
2021/05/12 12:21:58;;;;;;;11.05;2.13;;;19.60;96.70;;;;;;5104385;28;20126;-75
2021/05/12 12:24:28;;;;;;;8.88;2.15;;;19.70;96.70;;;;;;5094701;28;20130;-76
2021/05/12 12:26:58;;;;;;;12.07;1.70;;;19.50;96.40;;;;;;5103613;28;20047;-77
2021/05/12 12:29:29;;;;;;;8.38;2.33;;;19.60;96.10;;;;;;5099240;27;20408;-77
2021/05/12 12:32:00;;;;;;;10.35;2.83;;;19.80;96.70;;;;;;5099064;28;20040;-76
2021/05/12 12:34:31;;;;;;;13.10;2.30;;;19.60;96.70;;;;;;5100826;28;20185;-77
2021/05/12 12:37:04;;;;;;;11.27;2.03;;;19.70;96.70;;;;;;5099649;28;20052;-76
2021/05/12 12:39:52;;;;;;;10.30;2.13;;;19.60;96.20;;;;;;5101850;28;20580;-76
2021/05/12 12:42:27;;;;;;;10.90;2.05;;;19.60;96.30;;;;;;5097759;27;20039;-76
2021/05/12 12:44:56;;;;;;;11.77;2.00;;;19.50;95.20;;;;;;5099770;28;20050;-76
2021/05/12 12:47:25;;;;;;;13.18;3.20;;;19.50;96.50;;;;;;5101971;28;20066;-76
2021/05/12 12:49:57;;;;;;;11.32;2.00;;;19.40;96.60;;;;;;5084274;28;20047;-76
2021/05/12 12:52:41;;;;;;;13.52;2.40;;;19.50;96.70;;;;;;5099563;28;20059;-76
2021/05/12 12:55:13;;;;;;;10.27;2.15;;;19.70;96.40;;;;;;5099532;28;20034;-76
2021/05/12 12:57:43;;;;;;;13.18;2.80;;;19.90;95.60;;;;;;5098825;28;20040;-76
2021/05/12 13:00:32;;;;;;;11.75;2.97;;;19.80;95.20;;;;;;5103473;28;20043;-76
2021/05/12 13:03:08;;;;;;;11.23;2.47;;;19.90;94.90;;;;;;5075220;28;20058;-76
2021/05/12 13:05:40;;;;;;;8.45;1.70;;;20.00;95.00;;;;;;5103102;28;20130;-76
2021/05/12 13:08:14;;;;;;;13.32;2.65;;;19.90;94.70;;;;;;5093427;28;20094;-76
2021/05/12 13:10:56;;;;;;;;;;;19.90;95.50;;;;;;5101666;28;20055;-77
2021/05/12 13:13:30;;;;;;;12.27;2.28;;;20.40;93.90;;;;;;5107475;27;19924;-76
2021/05/12 13:16:15;;;;;;;10.57;2.30;;;20.30;94.30;;;;;;5102746;27;20039;-76
2021/05/12 13:18:50;;;;;;;18.23;2.65;;;20.60;94.40;;;;;;5103028;28;20318;-76
2021/05/12 13:21:21;;;;;;;11.73;2.83;;;20.50;93.80;;;;;;5081874;28;20047;-77
2021/05/12 13:24:01;;;;;;;13.98;2.63;;;20.70;94.00;;;;;;5102112;28;20401;-76